Scroll down
FLIGHT INFORMATION
Alaska Airlines

ASA879

At Arrival Gate

KSEA
 PHLI
DATE: 2020-10-09
GATE:  -
GATE DEPARTURE: 15:39
TAKEOFF: 15:50
DATE: 2020-10-09
GATE:  -
LANDING: 21:20
GATE ARRIVAL: 21:23
FLIGHT DATA
Crew: 
Speed: 
480 kts
Altitude: 
37,043 ft
Stage Length: 
2,345.9 nm
Block Time: 
5.7 hrs
Flight Time: 
5.5 hrs
Fuel Used: 
32,042 lb
Cleared Route: KSEA HQM SEDAR ZANNG ZAGER ZINNO ZEMOM ZOULU ZIGIE SOK LIH PHLI
TRACK DATA
50,000 ft 1,000 kts
AIRCRAFT INFO AND CUMULATIVE STATS
Aircraft Type: 
B738SSW
Registration: 
SELCAL: 
JQEM
MSN/LN: 
35181 / 2134
Operator: 
Total Flights: 
4
Total Block Time: 
21.7 hrs
Total Flight Time: 
21 hrs
Total Fuel Used: 
112,957 lb
DATALINK LOG | Newest first | Current as of: 2023-02-06 22:21:09
LABEL SEQUENCE CONTENT Dn/Up
QD271721:23 10.4▼ Dn
QC241421:20▼ Dn
2U5832PHLI 091953Z 09007KT 10SM CLR 29/22 A3000 RMK AO2 SLP154 T02940217▲ Up
2S0051PHLI▼ Dn
2U5806PHLI 091928Z 14009KT 10SM SCT040 28/22 A2999 RMK ADVANCED INTERPOLATION▲ Up
2S0150PHLI▼ Dn
5U4718PHOG 092248Z 05014G22KT 10SM SCT040 27/18 A2997▲ Up
5S5040PHOG▼ Dn
2U4456PHLI 091753Z 29006KT 10SM SCT038 24/22 A2998 RMK AO2 SLP148 T02440217 10261 20233 53013▲ Up
2S4737PHLI▼ Dn
QB534815:50▼ Dn
QA423715:39 42.6▼ Dn
A32318NO MATCHING FLIGHT DATA AVAILABLE FROM ANSP▲ Up
A70359CLEARANCE AVAIL WITHIN 0:25 OF EDT▲ Up
B30359KSEA PHLI AS879 N565AS ▼ Dn
UM2120167KSEA ATIS - SEA ATIS INFO K 1453Z. 14004KT 10SM SCT016 BKN025 14/13 A2987 (TWO NINER EIGHT SEVEN). ILS, RYS 16R AND 16L , APCH IN USE. DEPG RWY 16L. SIMUL APCHS IN USE, BFI & SEA. TRAFFIC BELOW YOU ON FINAL. NOTAMS... TWY B CLSD BTN TWY G AND TWY E. SIGNS ON TWY A BTWN TWY G AND CARGO 2 AND 3 ARE UNLIT. HAZD WX INFO FOR WESTERN WA AVAILABLE ON HIWAS. ...ADVS YOU HAVE INFO K.▲ Up
DM790157 ATIS KSEA D▼ Dn
A75955CLEARANCE AVAIL WITHIN 0:25 OF EDT▲ Up
B35955KSEA PHLI AS879 N565AS ▼ Dn
A75753CLEARANCE AVAIL WITHIN 0:25 OF EDT▲ Up
B35753KSEA PHLI AS879 N565AS ▼ Dn
Q05551[LINK ACK]▲ Up
Q05551[LINK TEST]▼ Dn


AIRCRAFT HISTORY
FLIGHT DATE FLIGHT NO. ORIGIN DESTINATION CLEARED ROUTE BLOCK TIME FLIGHT TIME FUEL USED PILOT
2021-09-12ASA861KSEA PHOG KSEA SEA ELMAA HQM SEDAR 43N35 39N40 35N45 31N50 APACK PHOG5.3 hrs5.2 hrs28,614 lbRyan Syferd
2021-09-10ASA832PHLI KSEA PHLI LIH SOK ZIGIE ZOULU ZEMOM ZINNO 38N40 41N35 44N30 SEDAR HQM OLM KSEA5.5 hrs5.3 hrs30,270 lbRyan Syferd
2020-10-09ASA879KSEA PHLI KSEA HQM SEDAR ZANNG ZAGER ZINNO ZEMOM ZOULU ZIGIE SOK LIH PHLI5.7 hrs5.5 hrs32,042 lbRyan Syferd
2020-07-24ASA9100KGSO KSEA KGSO BOTTM FLM DNV MZV FOD SIMJI FSD DPR MLP EPH KSEA5.2 hrs5.1 hrs22,031 lbRyan Syferd